TimeCST,TemperatureF,Dew PointF,Humidity,Sea Level PressureIn,VisibilityMPH,Wind Direction,Wind SpeedMPH,Gust SpeedMPH,PrecipitationIn,Events,Conditions,WindDirDegrees,DateUTC
12:58 AM,32.0,31.6,99,30.29,10.0,NNE,4.6,-,N/A,,Clear,20,2013-11-08 06:58:00
1:58 AM,34.9,31.3,87,30.26,10.0,Variable,4.6,-,N/A,,Clear,0,2013-11-08 07:58:00
2:58 AM,31.6,30.7,96,30.23,10.0,NNE,5.8,-,N/A,,Clear,30,2013-11-08 08:58:00
3:58 AM,44.6,34.0,66,30.17,10.0,SE,19.6,-,N/A,,Clear,140,2013-11-08 09:58:00
4:58 AM,45.1,34.2,65,30.13,10.0,SSE,16.1,-,N/A,,Clear,150,2013-11-08 10:58:00
5:58 AM,44.1,33.4,66,30.13,10.0,South,9.2,20.7,N/A,,Clear,170,2013-11-08 11:58:00
6:58 AM,44.2,32.4,63,30.09,10.0,South,10.4,-,N/A,,Clear,170,2013-11-08 12:58:00
7:58 AM,48.7,32.0,52,30.07,10.0,South,21.9,28.8,N/A,,Clear,180,2013-11-08 13:58:00
8:58 AM,52.7,31.5,44,30.03,10.0,South,19.6,29.9,N/A,,Clear,190,2013-11-08 14:58:00
9:58 AM,56.5,30.6,37,29.99,10.0,South,23.0,38.0,N/A,,Clear,180,2013-11-08 15:58:00
10:58 AM,59.4,30.9,34,29.95,10.0,South,23.0,39.1,0.04,,Clear,180,2013-11-08 16:58:00
11:58 AM,62.6,28.6,28,29.91,10.0,South,27.6,42.6,0.21,,Clear,190,2013-11-08 17:58:00
12:58 PM,66.4,30.4,26,29.85,10.0,SSW,36.8,47.2,2.21,,Clear,200,2013-11-08 18:58:00
1:58 PM,66.6,30.4,26,29.83,10.0,SSW,33.4,48.3,3.33,,Clear,200,2013-11-08 19:58:00
2:54 PM,66.2,32.0,28,29.82,10.0,South,33.4,47.2,N/A,,Squalls,190,2013-11-08 20:54:00
2:58 PM,66.2,30.7,27,29.82,10.0,South,38.0,47.2,1.54,,Clear,190,2013-11-08 20:58:00
3:58 PM,65.5,31.8,28,29.81,10.0,SSW,29.9,43.7,1.36,,Clear,200,2013-11-08 21:58:00
4:58 PM,63.3,30.9,30,29.86,10.0,SSW,23.0,31.1,0.27,,Clear,210,2013-11-08 22:58:00
5:58 PM,61.2,30.6,32,29.87,10.0,SSW,19.6,-,N/A,,Clear,200,2013-11-08 23:58:00
6:58 PM,57.6,32.5,39,29.89,10.0,South,15.0,-,N/A,,Clear,190,2013-11-09 00:58:00
7:58 PM,55.9,33.4,43,29.91,10.0,SSW,13.8,-,N/A,,Clear,200,2013-11-09 01:58:00
8:58 PM,55.8,32.7,42,29.91,10.0,SSW,16.1,-,N/A,,Clear,200,2013-11-09 02:58:00
9:58 PM,54.5,33.1,44,29.92,10.0,SSW,15.0,-,N/A,,Clear,210,2013-11-09 03:58:00
10:58 PM,51.4,33.4,50,29.94,10.0,SW,5.8,-,N/A,,Clear,220,2013-11-09 04:58:00
11:58 PM,48.9,34.0,56,29.96,10.0,SW,9.2,-,N/A,,Clear,220,2013-11-09 05:58:00